Elk Mountain, WY

2:12 AM MDT on June 02, 2015 (GMT -0600)
MesoWest | | Change Station
CLOSE
Current Station
Personal Weather Station
Location: Rock River, WY
Elevation: 7004 ft
Nearby Weather Stations
Active Advisory: Flood Warning

Elev 7004 ft 41.80 °N, 105.99 °W | Updated 10 days ago

Clear
Clear
50 °F
Feels Like 50 °F
N
7
Wind Variable Wind from SSW
Gusts mph

Today
High -- | Low -- °F
--% Chance of Precip.
Yesterday
High -- | Low -- °F
Precip. -- in
5:33 AM 8:34 PM
Full, 100% visible
Pressure 30.07 in
Visibility 10.0 miles
Clouds Clear
Dew Point 36 °F
Humidity 57%
Rainfall in
Snow Depth Not available.
UV 0 out of 12
Pollen 7.80 out of 12
Air Quality Not available.
Flu Activity Sporadic
METAR KEHY 020755Z AUTO 27005KT 10SM CLR 10/05 A3007 RMK AO2

More Conditions Fewer Conditions

Pressure 30.07 in
Visibility 10.0 miles
Clouds Clear
Dew Point 36 °F
Humidity 57%
Rainfall in
Snow Depth Not available.
UV 0 out of 12
Pollen 7.80 out of 12
Air Quality Not available.
Flu Activity Sporadic
METAR KEHY 020755Z AUTO 27005KT 10SM CLR 10/05 A3007 RMK AO2

More Conditions Fewer Conditions

10-Day Weather Forecast

Almanac

Astronomy

Jun. 02, 2015 Rise Set
Actual Time
Civil Twilight
Nautical Twilight
Astronomical Twilight
Moon
Length of Visible Light
Length of Day
Tomorrow will be .
, % of the Moon is Illuminated

Today's Extremes

State Highs State Lows

Community

WunderPhotos

Upload Photos

1,825,895 photos uploaded!

WunderBlogs® & News

Nearby

Air Quality

  Air Quality AQ Index Pollutant
Not available.

Snow Depth

Station Depth Elevation

Earthquake Activity

City Distance Mag. Time & Date
Minimum magnitude displayed is 2.5.

Coastal Water Temperatures

Place Temperature

Stations

Nearby Weather Stations

Station Location Temp. Windchill Dew Point Humidity Wind Precip. Elev Updated Type
                   
Flood Warning
Statement as of 9:07 PM MDT on June 01, 2015

* Flood Warning continues for
the Laramie river at Laramie
* the stage will rise above the flood stage of 8.0 feet at 06 PM
Wednesday and remain in minor flood conditions through the remainder
of the week. The river is forecast to rise to 8.7 feet by early
Friday morning.


Flood impacts and crest history information is displayed at:
http:///water.Weather.Gov/ahps2/index.Php?Wfo=cys&gage=llrw4

* impact... at 8.5 feet... water reaches the top of the Greenway path at
the intersection of park and Spruce streets. Water is over the
driveways of homes next to the Greenway along the right river bank.
* Flood history... this crest compares to a previous crest of 6.8 feet
on Jun 15 1957.


Lat... Lon 4142 10585 4142 10551 4128 10549 4119 10570
      4124 10577